createdAt,value
2023-03-03T00:00:08.301Z,6.55
2023-03-03T00:02:40.972Z,6.50
2023-03-03T00:05:08.179Z,6.48
2023-03-03T00:07:34.801Z,6.62
2023-03-03T00:10:01.442Z,6.58
2023-03-03T00:12:31.684Z,6.50
2023-03-03T00:14:58.445Z,6.41
2023-03-03T00:17:27.786Z,6.45
2023-03-03T00:19:55.392Z,6.42
2023-03-03T00:22:36.502Z,6.34
2023-03-03T00:25:21.713Z,6.42
2023-03-03T00:27:48.444Z,6.48
2023-03-03T00:30:25.478Z,6.44
2023-03-03T00:32:53.288Z,6.34
2023-03-03T00:35:35.420Z,6.34
2023-03-03T00:38:12.807Z,6.36
2023-03-03T00:40:40.816Z,6.29
2023-03-03T00:43:25.417Z,6.23
2023-03-03T00:45:54.464Z,6.14
2023-03-03T00:48:22.996Z,6.01
2023-03-03T00:50:50.906Z,6.11
2023-03-03T00:53:19.299Z,6.11
2023-03-03T00:55:47.728Z,6.23
2023-03-03T00:58:15.388Z,6.18
2023-03-03T01:00:45.036Z,6.17
2023-03-03T01:03:18.127Z,6.24
2023-03-03T01:05:45.394Z,6.24
2023-03-03T01:08:12.872Z,6.07
2023-03-03T01:10:44.068Z,6.08
2023-03-03T01:13:11.463Z,6.09
2023-03-03T01:15:39.969Z,6.07
2023-03-03T01:18:08.116Z,6.05
2023-03-03T01:20:34.841Z,5.92
2023-03-03T01:23:01.483Z,5.87
2023-03-03T01:25:28.473Z,5.87
2023-03-03T01:27:55.911Z,5.91
2023-03-03T01:30:23.330Z,5.91
2023-03-03T01:32:50.011Z,5.78
2023-03-03T01:35:17.260Z,5.74
2023-03-03T01:37:44.048Z,5.75
2023-03-03T01:40:20.582Z,5.71
2023-03-03T01:42:47.521Z,5.76
2023-03-03T01:45:26.163Z,5.72
2023-03-03T01:48:00.646Z,5.59
2023-03-03T01:50:47.691Z,5.65
2023-03-03T01:53:19.736Z,5.58
2023-03-03T01:55:47.724Z,5.58
2023-03-03T01:58:26.184Z,5.58
2023-03-03T02:01:02.486Z,5.66
2023-03-03T02:03:30.610Z,5.59
2023-03-03T02:06:03.382Z,5.52
2023-03-03T02:08:42.893Z,5.53
2023-03-03T02:11:11.004Z,5.48
2023-03-03T02:13:37.808Z,5.49
2023-03-03T02:16:04.879Z,5.61
2023-03-03T02:18:31.848Z,5.47
2023-03-03T02:21:05.577Z,5.56
2023-03-03T02:23:44.920Z,5.51
2023-03-03T02:26:24.849Z,5.54
2023-03-03T02:28:56.721Z,5.50
2023-03-03T02:31:26.400Z,5.47
2023-03-03T02:33:55.288Z,5.36
2023-03-03T02:36:28.439Z,5.25
2023-03-03T02:39:07.313Z,5.18
2023-03-03T02:41:36.998Z,5.10
2023-03-03T02:44:09.443Z,5.16
2023-03-03T02:46:39.327Z,5.35
2023-03-03T02:49:08.237Z,4.72
2023-03-03T02:51:35.875Z,5.10
2023-03-03T02:54:02.837Z,5.22
2023-03-03T02:56:33.267Z,5.12
2023-03-03T02:59:00.180Z,5.24
2023-03-03T03:01:27.630Z,5.16
2023-03-03T03:03:54.711Z,5.01
2023-03-03T03:06:22.937Z,5.03
2023-03-03T03:08:49.813Z,4.95
2023-03-03T03:11:16.563Z,5.11
2023-03-03T03:13:43.479Z,5.04
2023-03-03T03:16:10.184Z,5.10
2023-03-03T03:18:36.828Z,5.16
2023-03-03T03:21:11.849Z,5.03
2023-03-03T03:23:40.984Z,5.10
2023-03-03T03:26:08.811Z,5.08
2023-03-03T03:28:36.391Z,4.86
2023-03-03T03:31:05.570Z,5.02
2023-03-03T03:33:34.403Z,5.03
2023-03-03T03:36:01.464Z,4.89
2023-03-03T03:38:29.677Z,4.94
2023-03-03T03:40:56.524Z,5.03
2023-03-03T03:43:23.268Z,4.92
2023-03-03T03:45:50.142Z,4.74
2023-03-03T03:48:19.556Z,4.82
2023-03-03T03:50:48.920Z,4.79
2023-03-03T03:53:16.652Z,4.86
2023-03-03T03:55:44.488Z,4.79
2023-03-03T03:58:17.324Z,4.68
2023-03-03T04:00:48.966Z,4.68
2023-03-03T04:03:16.942Z,4.57
2023-03-03T04:05:45.827Z,4.79
2023-03-03T04:08:13.468Z,4.68
2023-03-03T04:10:42.281Z,4.76
2023-03-03T04:13:09.321Z,4.88
2023-03-03T04:15:36.444Z,4.76
2023-03-03T04:18:04.090Z,4.71
2023-03-03T04:20:30.977Z,4.77
2023-03-03T04:22:58.249Z,4.69
2023-03-03T04:25:25.999Z,4.69
2023-03-03T04:27:54.310Z,4.65
2023-03-03T04:30:22.695Z,4.74
2023-03-03T04:32:53.229Z,4.64
2023-03-03T04:35:22.496Z,4.41
2023-03-03T04:37:49.201Z,4.42
2023-03-03T04:40:18.228Z,4.50
2023-03-03T04:42:47.468Z,4.53
2023-03-03T04:45:14.230Z,4.35
2023-03-03T04:47:41.879Z,4.48
2023-03-03T04:50:11.051Z,4.49
2023-03-03T04:52:38.023Z,4.24
2023-03-03T04:55:09.340Z,4.25
2023-03-03T04:57:38.958Z,4.34
2023-03-03T05:00:06.694Z,4.43
2023-03-03T05:02:33.906Z,4.49
2023-03-03T05:05:01.976Z,4.56
2023-03-03T05:07:29.911Z,4.53
2023-03-03T05:09:56.516Z,4.28
2023-03-03T05:12:23.181Z,4.12
2023-03-03T05:14:49.867Z,4.26
2023-03-03T05:17:16.503Z,4.25
2023-03-03T05:19:43.208Z,4.10
2023-03-03T05:22:10.394Z,4.28
2023-03-03T05:24:37.100Z,4.23
2023-03-03T05:27:03.799Z,4.25
2023-03-03T05:29:31.569Z,4.37
2023-03-03T05:31:58.529Z,4.30
2023-03-03T05:34:25.429Z,4.37
2023-03-03T05:36:52.121Z,4.32
2023-03-03T05:39:18.892Z,3.99
2023-03-03T05:41:45.578Z,4.05
2023-03-03T05:44:12.831Z,4.05
2023-03-03T05:46:39.788Z,4.18
2023-03-03T05:49:06.486Z,4.09
2023-03-03T05:51:33.154Z,4.21
2023-03-03T05:53:59.862Z,4.22
2023-03-03T05:56:26.420Z,4.18
2023-03-03T05:58:53.148Z,4.17
2023-03-03T06:01:19.798Z,4.04
2023-03-03T06:03:46.354Z,4.07
2023-03-03T06:06:14.164Z,4.07
2023-03-03T06:08:40.864Z,4.10
2023-03-03T06:11:07.491Z,4.18
2023-03-03T06:13:34.480Z,4.08
2023-03-03T06:16:01.105Z,4.24
2023-03-03T06:18:27.662Z,4.00
2023-03-03T06:20:55.015Z,4.15
2023-03-03T06:23:22.145Z,4.16
2023-03-03T06:25:48.802Z,4.02
2023-03-03T06:28:15.393Z,4.08
2023-03-03T06:30:42.060Z,4.24
2023-03-03T06:33:08.632Z,4.22
2023-03-03T06:35:35.307Z,4.16
2023-03-03T06:38:02.799Z,4.22
2023-03-03T06:40:29.382Z,4.33
2023-03-03T06:42:56.260Z,4.32
2023-03-03T06:45:22.842Z,4.43
2023-03-03T06:47:49.606Z,4.42
2023-03-03T06:50:20.234Z,4.45
2023-03-03T06:52:47.010Z,4.46
2023-03-03T06:55:21.575Z,4.35
2023-03-03T06:57:48.329Z,4.45
2023-03-03T07:00:23.194Z,4.44
2023-03-03T07:03:00.744Z,4.58
2023-03-03T07:05:28.982Z,4.46
2023-03-03T07:07:56.748Z,4.46
2023-03-03T07:10:28.686Z,4.66
2023-03-03T07:13:14.452Z,4.72
2023-03-03T07:15:41.040Z,4.60
2023-03-03T07:18:24.643Z,4.45
2023-03-03T07:20:51.474Z,4.76
2023-03-03T07:23:25.164Z,4.77
2023-03-03T07:25:52.569Z,4.95
2023-03-03T07:28:29.736Z,5.19
2023-03-03T07:30:58.190Z,5.24
2023-03-03T07:33:34.246Z,5.32
2023-03-03T07:36:02.870Z,5.39
2023-03-03T07:38:34.487Z,5.56
2023-03-03T07:41:03.793Z,5.58
2023-03-03T07:43:43.236Z,5.75
2023-03-03T07:46:09.842Z,5.91
2023-03-03T07:48:40.093Z,5.95
2023-03-03T07:51:18.998Z,5.87
2023-03-03T07:53:47.329Z,6.06
2023-03-03T07:56:26.798Z,6.02
2023-03-03T07:58:55.985Z,6.08
2023-03-03T08:01:39.692Z,6.21
2023-03-03T08:04:17.512Z,6.20
2023-03-03T08:06:55.753Z,6.31
2023-03-03T08:09:51.872Z,6.30
2023-03-03T08:12:33.782Z,6.34
2023-03-03T08:15:36.249Z,6.16
2023-03-03T08:18:15.420Z,6.30
2023-03-03T08:20:46.163Z,6.40
2023-03-03T08:23:14.598Z,6.45
2023-03-03T08:25:42.353Z,6.29
2023-03-03T08:28:10.424Z,6.63
2023-03-03T08:30:37.153Z,6.74
2023-03-03T08:33:04.416Z,6.70
2023-03-03T08:35:31.418Z,7.01
2023-03-03T08:37:58.444Z,7.17
2023-03-03T08:40:25.411Z,7.06
2023-03-03T08:42:52.131Z,7.28
2023-03-03T08:45:18.724Z,7.16
2023-03-03T08:47:45.533Z,7.29
2023-03-03T08:50:13.251Z,7.23
2023-03-03T08:52:40.374Z,7.40
2023-03-03T08:55:08.783Z,7.35
2023-03-03T08:57:35.781Z,7.39
2023-03-03T09:00:03.072Z,7.07
2023-03-03T09:02:30.162Z,6.91
2023-03-03T09:04:56.791Z,7.27
2023-03-03T09:07:23.478Z,7.77
2023-03-03T09:09:50.499Z,8.03
2023-03-03T09:12:22.624Z,8.04
2023-03-03T09:14:51.317Z,8.07
2023-03-03T09:17:33.869Z,9.52
2023-03-03T09:20:17.535Z,10.34
2023-03-03T09:22:45.056Z,11.76
2023-03-03T09:25:22.132Z,12.66
2023-03-03T09:27:48.867Z,12.08
2023-03-03T09:30:39.501Z,12.30
2023-03-03T09:33:29.294Z,12.04
2023-03-03T09:36:22.427Z,13.39
2023-03-03T09:38:49.177Z,12.51
2023-03-03T09:41:23.994Z,12.34
2023-03-03T09:44:02.519Z,10.57
2023-03-03T09:46:44.776Z,9.62
2023-03-03T09:49:47.939Z,9.41
2023-03-03T09:52:27.303Z,9.09
2023-03-03T09:55:15.738Z,9.04
2023-03-03T09:58:12.583Z,9.03
2023-03-03T10:01:22.501Z,8.83
2023-03-03T10:04:08.273Z,8.99
2023-03-03T10:06:48.319Z,8.93
2023-03-03T10:09:43.165Z,8.82
2023-03-03T10:12:30.959Z,8.90
2023-03-03T10:15:30.365Z,8.85
2023-03-03T10:18:19.724Z,8.73
2023-03-03T10:21:12.340Z,8.79
2023-03-03T10:24:12.783Z,8.88
2023-03-03T10:27:12.327Z,8.81
2023-03-03T10:30:04.629Z,8.83
2023-03-03T10:32:45.578Z,8.67
2023-03-03T10:35:22.539Z,8.66
2023-03-03T10:38:12.085Z,8.78
2023-03-03T10:40:57.086Z,8.74
2023-03-03T10:43:33.041Z,8.91
2023-03-03T10:46:28.013Z,8.84
2023-03-03T10:49:20.802Z,9.11
2023-03-03T10:51:50.443Z,9.04
2023-03-03T10:54:54.464Z,9.36
2023-03-03T10:57:27.157Z,9.39
2023-03-03T11:00:32.728Z,9.61
2023-03-03T11:03:36.603Z,9.49
2023-03-03T11:06:11.270Z,9.40
2023-03-03T11:09:14.078Z,9.65
2023-03-03T11:12:10.200Z,9.48
2023-03-03T11:14:47.863Z,9.72
2023-03-03T11:17:46.992Z,9.59
2023-03-03T11:20:51.192Z,9.72
2023-03-03T11:23:44.719Z,9.64
2023-03-03T11:26:13.992Z,9.63
2023-03-03T11:29:10.296Z,9.12
2023-03-03T11:31:48.236Z,9.59
2023-03-03T11:34:47.130Z,9.28
2023-03-03T11:37:19.048Z,9.67
2023-03-03T11:39:45.785Z,9.73
2023-03-03T11:42:18.235Z,9.84
2023-03-03T11:44:55.072Z,9.58
2023-03-03T11:47:41.995Z,9.73
2023-03-03T11:50:16.357Z,9.59
2023-03-03T11:52:55.780Z,9.66
2023-03-03T11:55:39.391Z,9.35
2023-03-03T11:58:20.380Z,9.28
2023-03-03T12:00:52.389Z,9.75
2023-03-03T12:03:25.093Z,9.73
2023-03-03T12:06:13.305Z,9.80
2023-03-03T12:08:58.271Z,9.71
2023-03-03T12:11:54.412Z,9.53
2023-03-03T12:14:42.589Z,9.58
2023-03-03T12:17:21.223Z,9.72
2023-03-03T12:20:18.052Z,9.71
2023-03-03T12:23:07.285Z,9.78
2023-03-03T12:25:42.949Z,10.30
2023-03-03T12:28:36.310Z,9.94
2023-03-03T12:31:32.222Z,9.85
2023-03-03T12:34:11.901Z,9.80
2023-03-03T12:37:05.267Z,9.72
2023-03-03T12:39:56.672Z,9.64
2023-03-03T12:42:38.629Z,9.56
2023-03-03T12:45:24.314Z,9.72
2023-03-03T12:48:00.292Z,9.66
2023-03-03T12:50:47.311Z,9.60
2023-03-03T12:53:37.914Z,9.57
2023-03-03T12:56:10.462Z,9.65
2023-03-03T12:59:14.491Z,9.74
2023-03-03T13:02:08.456Z,9.98
2023-03-03T13:04:38.522Z,10.14
2023-03-03T13:07:31.499Z,10.37
2023-03-03T13:10:17.069Z,10.35
2023-03-03T13:13:11.944Z,10.00
2023-03-03T13:15:58.394Z,9.77
2023-03-03T13:18:49.832Z,9.86
2023-03-03T13:21:22.764Z,9.99
2023-03-03T13:24:05.110Z,9.69
2023-03-03T13:26:37.624Z,9.89
2023-03-03T13:29:15.387Z,9.83
2023-03-03T13:32:14.577Z,9.88
2023-03-03T13:35:09.151Z,9.86
2023-03-03T13:37:43.460Z,9.95
2023-03-03T13:40:13.464Z,10.02
2023-03-03T13:42:46.337Z,10.02
2023-03-03T13:45:31.317Z,10.06
2023-03-03T13:48:28.543Z,10.20
2023-03-03T13:51:10.470Z,10.08
2023-03-03T13:53:45.429Z,10.18
2023-03-03T13:56:33.319Z,10.32
2023-03-03T13:59:18.602Z,10.37
2023-03-03T14:02:22.210Z,10.20
2023-03-03T14:04:54.566Z,10.46
2023-03-03T14:07:44.966Z,10.51
2023-03-03T14:10:31.507Z,10.50
2023-03-03T14:13:24.744Z,10.57
2023-03-03T14:15:57.708Z,10.64
2023-03-03T14:18:44.811Z,10.76
2023-03-03T14:21:18.975Z,10.78
2023-03-03T14:24:02.453Z,10.77
2023-03-03T14:26:29.281Z,10.77
2023-03-03T14:29:20.349Z,10.83
2023-03-03T14:31:47.763Z,10.92
2023-03-03T14:34:29.419Z,11.00
2023-03-03T14:37:23.016Z,11.06
2023-03-03T14:40:15.042Z,11.15
2023-03-03T14:42:53.770Z,11.25
2023-03-03T14:45:33.651Z,11.32
2023-03-03T14:48:11.608Z,11.41
2023-03-03T14:50:41.597Z,11.35
2023-03-03T14:53:19.988Z,11.38
2023-03-03T14:55:52.884Z,11.44
2023-03-03T14:58:26.847Z,11.63
2023-03-03T15:01:18.666Z,11.73
2023-03-03T15:03:49.244Z,11.79
2023-03-03T15:06:32.949Z,11.74
2023-03-03T15:09:20.672Z,11.76
2023-03-03T15:11:51.556Z,11.70
2023-03-03T15:14:24.631Z,11.63
2023-03-03T15:16:51.416Z,11.64
2023-03-03T15:19:37.107Z,11.66
2023-03-03T15:22:29.133Z,11.77
2023-03-03T15:25:10.959Z,11.86
2023-03-03T15:27:43.870Z,11.71
2023-03-03T15:30:15.502Z,11.53
2023-03-03T15:32:56.543Z,11.34
2023-03-03T15:35:52.992Z,11.05
2023-03-03T15:38:31.103Z,10.92
2023-03-03T15:41:19.236Z,10.76
2023-03-03T15:44:10.450Z,10.68
2023-03-03T15:46:44.123Z,10.55
2023-03-03T15:49:55.364Z,10.48
2023-03-03T15:52:45.384Z,10.42
2023-03-03T15:55:32.549Z,10.30
2023-03-03T15:58:23.879Z,10.20
2023-03-03T16:01:10.571Z,10.26
2023-03-03T16:03:46.443Z,10.24
2023-03-03T16:06:22.133Z,10.15
2023-03-03T16:09:10.012Z,10.22
2023-03-03T16:11:54.332Z,10.12
2023-03-03T16:14:36.350Z,10.14
2023-03-03T16:17:28.256Z,10.11
2023-03-03T16:20:10.191Z,9.97
2023-03-03T16:22:49.778Z,9.93
2023-03-03T16:25:36.818Z,9.92
2023-03-03T16:28:18.014Z,9.81
2023-03-03T16:30:54.955Z,9.63
2023-03-03T16:33:37.722Z,9.75
2023-03-03T16:36:28.545Z,9.82
2023-03-03T16:39:25.932Z,9.72
2023-03-03T16:42:08.582Z,9.67
2023-03-03T16:44:43.604Z,9.51
2023-03-03T16:47:24.061Z,9.62
2023-03-03T16:50:06.233Z,9.68
2023-03-03T16:52:40.756Z,9.45
2023-03-03T16:55:46.997Z,9.37
2023-03-03T16:58:31.717Z,9.38
2023-03-03T17:01:07.214Z,9.19
2023-03-03T17:03:46.194Z,9.27
2023-03-03T17:06:27.770Z,9.19
2023-03-03T17:09:32.076Z,9.12
2023-03-03T17:12:32.477Z,9.15
2023-03-03T17:15:14.918Z,9.10
2023-03-03T17:17:56.930Z,9.16
2023-03-03T17:20:32.365Z,9.03
2023-03-03T17:23:36.388Z,8.97
2023-03-03T17:26:23.430Z,8.65
2023-03-03T17:29:21.634Z,8.93
2023-03-03T17:32:27.276Z,8.86
2023-03-03T17:35:27.005Z,8.66
2023-03-03T17:38:05.678Z,8.80
2023-03-03T17:40:49.336Z,8.85
2023-03-03T17:43:39.753Z,8.80
2023-03-03T17:46:16.907Z,8.74
2023-03-03T17:49:06.741Z,8.80
2023-03-03T17:51:51.325Z,8.67
2023-03-03T17:54:32.957Z,8.69
2023-03-03T17:57:17.398Z,8.66
2023-03-03T17:59:58.730Z,8.69
2023-03-03T18:03:03.118Z,8.67
2023-03-03T18:06:00.107Z,8.61
2023-03-03T18:08:37.250Z,8.55
2023-03-03T18:11:29.301Z,8.56
2023-03-03T18:14:22.000Z,8.55
2023-03-03T18:17:10.104Z,8.57
2023-03-03T18:20:05.008Z,8.49
2023-03-03T18:22:41.095Z,8.49
2023-03-03T18:25:22.421Z,8.49
2023-03-03T18:28:01.123Z,8.45
2023-03-03T18:30:32.892Z,8.39
2023-03-03T18:33:07.033Z,8.36
2023-03-03T18:35:38.230Z,8.21
2023-03-03T18:38:16.916Z,8.21
2023-03-03T18:41:03.995Z,8.19
2023-03-03T18:43:45.469Z,8.10
2023-03-03T18:46:22.632Z,8.22
2023-03-03T18:48:53.332Z,8.23
2023-03-03T18:51:35.464Z,8.12
2023-03-03T18:54:16.172Z,8.02
2023-03-03T18:56:58.249Z,8.02
2023-03-03T18:59:31.141Z,7.96
2023-03-03T19:02:13.252Z,7.97
2023-03-03T19:05:06.509Z,7.80
2023-03-03T19:07:42.146Z,7.85
2023-03-03T19:10:21.368Z,7.81
2023-03-03T19:12:52.056Z,7.67
2023-03-03T19:15:31.197Z,7.43
2023-03-03T19:18:03.646Z,7.59
2023-03-03T19:20:40.946Z,7.35
2023-03-03T19:23:17.102Z,7.50
2023-03-03T19:25:44.199Z,7.49
2023-03-03T19:28:38.052Z,7.35
2023-03-03T19:31:21.669Z,7.39
2023-03-03T19:33:57.142Z,7.32
2023-03-03T19:36:39.694Z,7.30
2023-03-03T19:39:52.367Z,7.35
2023-03-03T19:42:39.970Z,7.26
2023-03-03T19:45:24.669Z,7.23
2023-03-03T19:48:01.185Z,7.13
2023-03-03T19:51:07.821Z,7.22
2023-03-03T19:53:43.337Z,7.21
2023-03-03T19:56:42.564Z,7.14
2023-03-03T19:59:31.177Z,7.11
2023-03-03T20:02:16.520Z,7.11
2023-03-03T20:04:59.638Z,6.99
2023-03-03T20:07:33.879Z,6.97
2023-03-03T20:10:15.783Z,7.05
2023-03-03T20:13:00.194Z,6.98
2023-03-03T20:15:36.684Z,6.88
2023-03-03T20:18:28.141Z,6.86
2023-03-03T20:21:28.230Z,6.94
2023-03-03T20:24:25.144Z,6.85
2023-03-03T20:27:18.518Z,6.76
2023-03-03T20:30:02.561Z,6.84
2023-03-03T20:32:44.470Z,6.72
2023-03-03T20:35:21.039Z,6.82
2023-03-03T20:37:54.504Z,6.80
2023-03-03T20:40:45.400Z,6.72
2023-03-03T20:43:38.324Z,6.73
2023-03-03T20:46:29.469Z,6.64
2023-03-03T20:49:14.627Z,6.65
2023-03-03T20:51:43.771Z,6.67
2023-03-03T20:54:22.554Z,6.59
2023-03-03T20:57:01.369Z,6.37
2023-03-03T20:59:44.621Z,6.18
2023-03-03T21:02:23.933Z,6.35
2023-03-03T21:05:08.079Z,6.25
2023-03-03T21:07:36.559Z,6.29
2023-03-03T21:10:36.260Z,6.14
2023-03-03T21:13:30.925Z,6.22
2023-03-03T21:16:06.128Z,6.10
2023-03-03T21:18:32.856Z,6.10
2023-03-03T21:20:59.581Z,6.01
2023-03-03T21:23:26.273Z,6.11
2023-03-03T21:25:55.245Z,6.07
2023-03-03T21:28:31.313Z,6.04
2023-03-03T21:31:17.188Z,6.08
2023-03-03T21:33:55.704Z,6.00
2023-03-03T21:36:45.031Z,6.04
2023-03-03T21:39:20.761Z,5.81
2023-03-03T21:41:55.475Z,5.92
2023-03-03T21:44:29.745Z,5.74
2023-03-03T21:46:58.593Z,5.80
2023-03-03T21:49:26.111Z,5.39
2023-03-03T21:51:53.239Z,5.14
2023-03-03T21:54:19.883Z,5.30
2023-03-03T21:56:48.007Z,5.34
2023-03-03T21:59:14.882Z,5.24
2023-03-03T22:01:41.807Z,5.21
2023-03-03T22:04:09.717Z,5.21
2023-03-03T22:06:39.926Z,5.27
2023-03-03T22:09:07.214Z,5.19
2023-03-03T22:11:34.191Z,5.06
2023-03-03T22:14:01.158Z,5.16
2023-03-03T22:16:28.051Z,4.82
2023-03-03T22:18:54.769Z,5.16
2023-03-03T22:21:21.912Z,5.19
2023-03-03T22:23:48.660Z,5.12
2023-03-03T22:26:15.571Z,5.00
2023-03-03T22:28:44.249Z,4.88
2023-03-03T22:31:11.209Z,4.84
2023-03-03T22:33:37.917Z,5.05
2023-03-03T22:36:11.883Z,4.88
2023-03-03T22:38:39.962Z,5.14
2023-03-03T22:41:07.662Z,5.15
2023-03-03T22:43:34.664Z,5.06
2023-03-03T22:46:01.551Z,5.03
2023-03-03T22:48:29.389Z,5.15
2023-03-03T22:50:56.680Z,5.14
2023-03-03T22:53:24.860Z,5.06
2023-03-03T22:55:52.184Z,5.01
2023-03-03T22:58:26.736Z,4.92
2023-03-03T23:00:54.157Z,4.90
2023-03-03T23:03:22.587Z,4.81
2023-03-03T23:05:51.654Z,4.86
2023-03-03T23:08:20.444Z,4.90
2023-03-03T23:10:48.521Z,4.73
2023-03-03T23:13:15.523Z,4.81
2023-03-03T23:15:42.716Z,4.72
2023-03-03T23:18:09.991Z,4.61
2023-03-03T23:20:37.205Z,4.59
2023-03-03T23:23:03.858Z,4.44
2023-03-03T23:25:30.582Z,4.48
2023-03-03T23:27:57.571Z,4.53
2023-03-03T23:30:24.327Z,4.46
2023-03-03T23:32:51.734Z,4.47
2023-03-03T23:35:19.106Z,4.43
2023-03-03T23:37:46.089Z,4.41
2023-03-03T23:40:15.160Z,4.40
2023-03-03T23:42:42.293Z,4.34
2023-03-03T23:45:10.537Z,4.35
2023-03-03T23:47:37.378Z,4.33
2023-03-03T23:50:04.827Z,4.23
2023-03-03T23:52:31.689Z,4.35
2023-03-03T23:54:58.454Z,4.28
2023-03-03T23:57:25.222Z,4.25
2023-03-03T23:59:51.858Z,4.35
